createdAt,value
2022-11-27T00:00:50.626Z,64.05
2022-11-27T00:03:54.314Z,58.97
2022-11-27T00:06:56.972Z,49.97
2022-11-27T00:09:59.630Z,61.85
2022-11-27T00:13:03.408Z,64.03
2022-11-27T00:16:06.713Z,70.30
2022-11-27T00:19:09.935Z,57.95
2022-11-27T00:22:12.369Z,59.33
2022-11-27T00:25:14.890Z,53.40
2022-11-27T00:28:18.880Z,61.92
2022-11-27T00:31:27.074Z,64.95
2022-11-27T00:34:29.599Z,64.47
2022-11-27T00:37:32.048Z,59.10
2022-11-27T00:40:34.919Z,62.17
2022-11-27T00:43:44.458Z,83.07
2022-11-27T00:46:47.483Z,74.22
2022-11-27T00:49:51.301Z,71.82
2022-11-27T00:52:53.707Z,67.73
2022-11-27T00:55:56.821Z,77.45
2022-11-27T00:59:00.791Z,93.63
2022-11-27T01:02:03.276Z,90.88
2022-11-27T01:05:06.798Z,100.43
2022-11-27T01:08:09.239Z,89.40
2022-11-27T01:11:14.757Z,74.57
2022-11-27T01:14:19.023Z,71.68
2022-11-27T01:17:21.481Z,83.25
2022-11-27T01:20:24.076Z,95.50
2022-11-27T01:23:26.564Z,73.57
2022-11-27T01:26:29.053Z,60.60
2022-11-27T01:29:32.929Z,66.35
2022-11-27T01:32:35.399Z,73.80
2022-11-27T01:35:37.776Z,65.90
2022-11-27T01:38:40.665Z,80.43
2022-11-27T01:41:43.763Z,83.00
2022-11-27T01:44:54.592Z,78.28
2022-11-27T01:48:01.632Z,68.25
2022-11-27T01:51:04.746Z,58.28
2022-11-27T01:54:09.335Z,54.07
2022-11-27T01:57:16.360Z,61.03
2022-11-27T02:00:21.171Z,64.32
2022-11-27T02:03:24.126Z,60.47
2022-11-27T02:06:26.918Z,63.78
2022-11-27T02:09:31.031Z,61.73
2022-11-27T02:12:41.146Z,48.55
2022-11-27T02:15:49.749Z,51.83
2022-11-27T02:18:59.363Z,57.45
2022-11-27T02:22:07.524Z,69.70
2022-11-27T02:25:18.298Z,65.33
2022-11-27T02:28:42.459Z,55.22
2022-11-27T02:31:56.410Z,56.22
2022-11-27T02:35:04.438Z,54.55
2022-11-27T02:38:10.667Z,58.00
2022-11-27T02:41:17.819Z,68.37
2022-11-27T02:44:21.742Z,64.53
2022-11-27T02:47:27.787Z,59.60
2022-11-27T02:50:33.927Z,66.38
2022-11-27T02:53:41.456Z,64.32
2022-11-27T02:56:48.167Z,59.40
2022-11-27T02:59:52.522Z,64.65
2022-11-27T03:03:01.060Z,57.63
2022-11-27T03:06:08.157Z,61.58
2022-11-27T03:09:16.032Z,67.32
2022-11-27T03:12:19.347Z,70.10
2022-11-27T03:15:24.146Z,61.53
2022-11-27T03:18:36.689Z,64.35
2022-11-27T03:21:41.340Z,70.28
2022-11-27T03:24:43.967Z,65.45
2022-11-27T03:27:52.515Z,54.10
2022-11-27T03:30:55.014Z,58.15
2022-11-27T03:33:59.165Z,58.17
2022-11-27T03:37:01.834Z,67.38
2022-11-27T03:40:06.407Z,57.58
2022-11-27T03:43:14.930Z,70.07
2022-11-27T03:46:24.010Z,58.70
2022-11-27T03:49:40.504Z,68.32
2022-11-27T03:52:52.295Z,66.78
2022-11-27T03:56:05.468Z,61.38
2022-11-27T03:59:16.851Z,50.37
2022-11-27T04:02:28.683Z,53.15
2022-11-27T04:05:33.285Z,49.85
2022-11-27T04:08:36.190Z,57.55
2022-11-27T04:11:38.612Z,57.33
2022-11-27T04:14:41.216Z,67.40
2022-11-27T04:17:43.894Z,63.42
2022-11-27T04:20:47.818Z,59.70
2022-11-27T04:23:51.243Z,65.40
2022-11-27T04:26:53.684Z,58.17
2022-11-27T04:29:56.160Z,56.83
2022-11-27T04:32:59.600Z,57.85
2022-11-27T04:36:03.720Z,65.60
2022-11-27T04:39:06.216Z,60.08
2022-11-27T04:42:08.713Z,63.50
2022-11-27T04:45:11.352Z,54.63
2022-11-27T04:48:13.874Z,56.92
2022-11-27T04:51:17.753Z,59.83
2022-11-27T04:54:20.319Z,63.03
2022-11-27T04:57:22.722Z,62.70
2022-11-27T05:00:25.239Z,64.23
2022-11-27T05:03:27.695Z,54.88
2022-11-27T05:06:31.431Z,57.97
2022-11-27T05:09:33.875Z,61.55
2022-11-27T05:12:36.315Z,63.72
2022-11-27T05:15:38.795Z,63.47
2022-11-27T05:18:41.447Z,56.13
2022-11-27T05:21:46.081Z,52.58
2022-11-27T05:24:48.544Z,55.47
2022-11-27T05:27:50.987Z,55.80
2022-11-27T05:30:53.439Z,55.40
2022-11-27T05:33:55.860Z,56.75
2022-11-27T05:36:59.681Z,59.92
2022-11-27T05:40:02.201Z,55.85
2022-11-27T05:43:05.337Z,56.00
2022-11-27T05:46:19.290Z,64.47
2022-11-27T05:49:21.953Z,58.30
2022-11-27T05:52:25.797Z,65.18
2022-11-27T05:55:28.319Z,57.83
2022-11-27T05:58:31.131Z,63.05
2022-11-27T06:01:33.783Z,70.40
2022-11-27T06:04:36.395Z,62.42
2022-11-27T06:07:40.284Z,55.97
2022-11-27T06:10:42.821Z,56.30
2022-11-27T06:13:46.951Z,65.50
2022-11-27T06:16:49.807Z,65.13
2022-11-27T06:19:52.379Z,67.03
2022-11-27T06:22:57.668Z,56.00
2022-11-27T06:26:09.621Z,60.58
2022-11-27T06:29:12.682Z,55.88
2022-11-27T06:32:15.171Z,52.70
2022-11-27T06:35:17.831Z,55.70
2022-11-27T06:38:21.631Z,57.72
2022-11-27T06:41:27.128Z,50.83
2022-11-27T06:44:29.612Z,55.08
2022-11-27T06:47:32.112Z,58.27
2022-11-27T06:50:34.636Z,58.63
2022-11-27T06:53:39.144Z,58.83
2022-11-27T06:56:41.731Z,60.15
2022-11-27T06:59:45.143Z,58.97
2022-11-27T07:02:47.712Z,63.27
2022-11-27T07:05:50.230Z,67.20
2022-11-27T07:08:55.245Z,62.50
2022-11-27T07:11:57.726Z,58.33
2022-11-27T07:15:04.026Z,60.30
2022-11-27T07:18:06.982Z,56.53
2022-11-27T07:21:09.872Z,71.72
2022-11-27T07:24:13.627Z,69.32
2022-11-27T07:27:16.192Z,68.53
2022-11-27T07:30:20.054Z,61.33
2022-11-27T07:33:22.921Z,57.40
2022-11-27T07:36:27.487Z,59.42
2022-11-27T07:40:00.386Z,53.22
2022-11-27T07:42:54.238Z,48.80
2022-11-27T07:45:57.687Z,43.47
2022-11-27T07:49:00.845Z,47.30
2022-11-27T07:52:03.597Z,52.80
2022-11-27T07:55:08.113Z,49.55
2022-11-27T07:58:10.948Z,51.33
2022-11-27T08:01:15.875Z,49.15
2022-11-27T08:04:18.611Z,60.70
2022-11-27T08:07:21.136Z,59.55
2022-11-27T08:10:25.139Z,62.13
2022-11-27T08:13:27.563Z,58.13
2022-11-27T08:16:30.652Z,58.35
2022-11-27T08:19:33.175Z,60.73
2022-11-27T08:22:37.468Z,60.53
2022-11-27T08:25:41.280Z,60.45
2022-11-27T08:28:44.446Z,62.13
2022-11-27T08:31:46.953Z,54.63
2022-11-27T08:34:49.482Z,59.17
2022-11-27T08:37:51.963Z,50.85
2022-11-27T08:40:56.756Z,43.80
2022-11-27T08:43:59.454Z,45.92
2022-11-27T08:47:02.019Z,44.78
2022-11-27T08:50:05.638Z,48.50
2022-11-27T08:53:09.267Z,48.25
2022-11-27T08:56:16.762Z,64.32
2022-11-27T08:59:19.291Z,48.60
2022-11-27T09:02:21.848Z,50.30
2022-11-27T09:05:24.409Z,46.00
2022-11-27T09:08:26.948Z,39.95
2022-11-27T09:11:32.047Z,49.80
2022-11-27T09:14:34.592Z,42.30
2022-11-27T09:17:37.359Z,40.00
2022-11-27T09:20:39.752Z,41.10
2022-11-27T09:23:42.593Z,38.53
2022-11-27T09:26:46.404Z,38.35
2022-11-27T09:29:49.859Z,39.17
2022-11-27T09:32:52.490Z,34.28
2022-11-27T09:35:55.796Z,37.37
2022-11-27T09:38:59.072Z,42.85
2022-11-27T09:42:06.038Z,39.50
2022-11-27T09:45:15.023Z,43.58
2022-11-27T09:48:23.027Z,39.42
2022-11-27T09:51:31.822Z,46.43
2022-11-27T09:54:38.414Z,39.75
2022-11-27T09:57:46.359Z,38.17
2022-11-27T10:00:49.166Z,38.50
2022-11-27T10:03:51.689Z,50.28
2022-11-27T10:07:12.953Z,43.87
2022-11-27T10:10:30.084Z,44.13
2022-11-27T10:13:45.013Z,46.53
2022-11-27T10:16:53.916Z,51.03
2022-11-27T10:20:03.308Z,45.60
2022-11-27T10:23:15.880Z,41.50
2022-11-27T10:26:20.329Z,43.75
2022-11-27T10:29:35.558Z,39.25
2022-11-27T10:32:55.438Z,36.22
2022-11-27T10:36:00.782Z,36.80
2022-11-27T10:39:06.779Z,38.30
2022-11-27T10:42:14.071Z,33.20
2022-11-27T10:45:24.774Z,37.22
2022-11-27T10:48:29.463Z,33.65
2022-11-27T10:51:36.360Z,37.60
2022-11-27T10:54:40.599Z,41.00
2022-11-27T10:57:57.468Z,38.00
2022-11-27T11:01:07.091Z,30.98
2022-11-27T11:04:35.873Z,31.98
2022-11-27T11:07:34.059Z,28.13
2022-11-27T11:10:43.021Z,34.13
2022-11-27T11:13:47.106Z,31.83
2022-11-27T11:16:52.763Z,27.98
2022-11-27T11:19:55.255Z,30.10
2022-11-27T11:22:58.012Z,27.92
2022-11-27T11:26:05.968Z,24.33
2022-11-27T11:29:32.680Z,32.30
2022-11-27T11:32:39.404Z,28.80
2022-11-27T11:35:42.186Z,34.80
2022-11-27T11:38:46.851Z,35.90
2022-11-27T11:41:49.369Z,33.67
2022-11-27T11:44:53.784Z,29.75
2022-11-27T11:47:59.156Z,32.42
2022-11-27T11:51:08.029Z,31.98
2022-11-27T11:54:29.699Z,30.70
2022-11-27T11:57:51.821Z,32.20
2022-11-27T12:01:26.399Z,33.47
2022-11-27T12:05:04.625Z,35.80
2022-11-27T12:08:23.660Z,36.95
2022-11-27T12:11:33.816Z,38.00
2022-11-27T12:14:43.266Z,34.10
2022-11-27T12:17:57.613Z,32.47
2022-11-27T12:21:13.388Z,41.10
2022-11-27T12:24:33.504Z,36.17
2022-11-27T12:27:49.221Z,34.30
2022-11-27T12:30:59.553Z,35.10
2022-11-27T12:34:06.109Z,40.33
2022-11-27T12:37:28.491Z,31.80
2022-11-27T12:40:42.495Z,29.50
2022-11-27T12:43:49.836Z,29.45
2022-11-27T12:46:58.751Z,23.57
2022-11-27T12:50:07.879Z,26.08
2022-11-27T12:53:24.496Z,28.10
2022-11-27T12:56:33.604Z,28.88
2022-11-27T12:59:43.504Z,33.42
2022-11-27T13:02:55.653Z,38.83
2022-11-27T13:06:03.872Z,43.72
2022-11-27T13:09:13.719Z,44.03
2022-11-27T13:12:23.972Z,31.83
2022-11-27T13:15:32.759Z,32.80
2022-11-27T13:18:39.539Z,32.17
2022-11-27T13:21:43.122Z,32.75
2022-11-27T13:24:47.288Z,30.80
2022-11-27T13:27:52.813Z,32.00
2022-11-27T13:31:00.480Z,35.70
2022-11-27T13:34:05.867Z,32.20
2022-11-27T13:37:09.545Z,39.13
2022-11-27T13:40:21.492Z,48.80
2022-11-27T13:43:32.612Z,40.28
2022-11-27T13:46:46.370Z,40.80
2022-11-27T13:50:00.342Z,33.23
2022-11-27T13:53:05.798Z,39.10
2022-11-27T13:56:11.125Z,43.75
2022-11-27T13:59:18.467Z,41.47
2022-11-27T14:02:21.034Z,59.50
2022-11-27T14:05:36.461Z,50.17
2022-11-27T14:08:39.130Z,46.53
2022-11-27T14:11:45.792Z,44.75
2022-11-27T14:15:02.793Z,45.08
2022-11-27T14:18:15.165Z,36.30
2022-11-27T14:21:25.294Z,42.33
2022-11-27T14:24:46.608Z,47.30
2022-11-27T14:27:58.781Z,42.67
2022-11-27T14:31:02.468Z,43.10
2022-11-27T14:34:16.071Z,41.92
2022-11-27T14:37:22.487Z,38.07
2022-11-27T14:40:27.885Z,40.85
2022-11-27T14:43:31.782Z,42.30
2022-11-27T14:46:37.245Z,37.88
2022-11-27T14:49:42.094Z,45.97
2022-11-27T14:52:50.871Z,45.33
2022-11-27T14:55:57.684Z,40.38
2022-11-27T14:59:02.614Z,45.88
2022-11-27T15:02:18.060Z,47.22
2022-11-27T15:05:23.470Z,46.88
2022-11-27T15:08:27.206Z,48.03
2022-11-27T15:11:54.615Z,41.60
2022-11-27T15:14:58.461Z,44.95
2022-11-27T15:18:04.915Z,43.95
2022-11-27T15:21:11.627Z,52.47
2022-11-27T15:24:29.396Z,61.47
2022-11-27T15:27:33.443Z,86.80
2022-11-27T15:30:45.464Z,94.40
2022-11-27T15:33:55.872Z,67.18
2022-11-27T15:37:01.642Z,69.97
2022-11-27T15:40:22.934Z,85.90
2022-11-27T15:43:25.684Z,59.67
2022-11-27T15:46:34.526Z,50.13
2022-11-27T15:49:37.146Z,56.55
2022-11-27T15:52:40.102Z,63.90
2022-11-27T15:55:42.645Z,67.83
2022-11-27T15:58:45.512Z,62.15
2022-11-27T16:01:50.692Z,61.80
2022-11-27T16:04:53.335Z,62.72
2022-11-27T16:07:55.929Z,61.08
2022-11-27T16:11:01.444Z,66.57
2022-11-27T16:14:04.068Z,69.40
2022-11-27T16:17:07.925Z,99.75
2022-11-27T16:20:11.228Z,75.28
2022-11-27T16:23:14.460Z,59.30
2022-11-27T16:26:17.282Z,54.30
2022-11-27T16:29:20.260Z,59.10
2022-11-27T16:32:24.295Z,68.47
2022-11-27T16:35:27.600Z,57.33
2022-11-27T16:38:30.224Z,46.03
2022-11-27T16:41:33.096Z,39.77
2022-11-27T16:44:35.749Z,54.17
2022-11-27T16:47:39.847Z,55.00
2022-11-27T16:50:45.439Z,53.25
2022-11-27T16:53:50.031Z,76.15
2022-11-27T16:56:52.819Z,57.70
2022-11-27T16:59:55.772Z,51.50
2022-11-27T17:02:59.837Z,48.58
2022-11-27T17:06:07.626Z,45.25
2022-11-27T17:09:10.724Z,50.80
2022-11-27T17:12:14.187Z,45.47
2022-11-27T17:15:17.931Z,49.78
2022-11-27T17:18:22.179Z,52.67
2022-11-27T17:21:27.330Z,56.90
2022-11-27T17:24:30.698Z,86.57
2022-11-27T17:27:35.374Z,70.20
2022-11-27T17:30:39.503Z,59.72
2022-11-27T17:33:44.345Z,65.82
2022-11-27T17:36:56.995Z,84.70
2022-11-27T17:39:59.842Z,102.72
2022-11-27T17:43:04.709Z,95.80
2022-11-27T17:46:08.653Z,91.55
2022-11-27T17:49:12.851Z,84.55
2022-11-27T17:52:15.776Z,85.47
2022-11-27T17:55:19.346Z,88.75
2022-11-27T17:58:21.825Z,102.70
2022-11-27T18:01:26.464Z,89.53
2022-11-27T18:04:31.086Z,81.78
2022-11-27T18:07:34.184Z,97.93
2022-11-27T18:10:37.455Z,95.25
2022-11-27T18:13:40.862Z,95.77
2022-11-27T18:16:45.676Z,85.53
2022-11-27T18:19:51.760Z,92.30
2022-11-27T18:22:54.560Z,84.68
2022-11-27T18:25:57.386Z,68.20
2022-11-27T18:29:00.487Z,58.27
2022-11-27T18:32:03.290Z,52.50
2022-11-27T18:35:08.403Z,63.17
2022-11-27T18:38:11.114Z,77.97
2022-11-27T18:41:16.689Z,86.00
2022-11-27T18:44:19.762Z,87.97
2022-11-27T18:47:22.453Z,105.07
2022-11-27T18:50:29.995Z,95.03
2022-11-27T18:53:33.896Z,87.93
2022-11-27T18:56:37.582Z,89.80
2022-11-27T18:59:42.930Z,95.13
2022-11-27T19:02:46.232Z,87.28
2022-11-27T19:05:50.604Z,96.50
2022-11-27T19:08:53.568Z,91.07
2022-11-27T19:11:56.113Z,103.53
2022-11-27T19:15:00.593Z,119.47
2022-11-27T19:18:04.203Z,95.97
2022-11-27T19:21:10.313Z,56.10
2022-11-27T19:24:13.048Z,79.50
2022-11-27T19:27:16.265Z,84.32
2022-11-27T19:30:19.354Z,53.03
2022-11-27T19:33:24.890Z,58.28
2022-11-27T19:36:29.897Z,48.13
2022-11-27T19:39:32.705Z,64.93
2022-11-27T19:42:35.935Z,78.63
2022-11-27T19:45:38.871Z,79.60
2022-11-27T19:48:41.436Z,70.70
2022-11-27T19:51:46.088Z,77.40
2022-11-27T19:54:49.195Z,56.50
2022-11-27T19:57:51.882Z,62.05
2022-11-27T20:00:54.549Z,64.50
2022-11-27T20:03:57.712Z,69.28
2022-11-27T20:07:04.837Z,68.80
2022-11-27T20:10:08.199Z,77.57
2022-11-27T20:13:11.177Z,82.63
2022-11-27T20:16:17.969Z,80.23
2022-11-27T20:19:20.615Z,95.38
2022-11-27T20:22:24.699Z,118.20
2022-11-27T20:25:27.671Z,79.43
2022-11-27T20:28:30.610Z,76.30
2022-11-27T20:31:36.364Z,73.10
2022-11-27T20:34:40.202Z,85.45
2022-11-27T20:37:45.602Z,70.80
2022-11-27T20:40:49.277Z,77.13
2022-11-27T20:43:55.088Z,59.22
2022-11-27T20:46:57.859Z,60.90
2022-11-27T20:50:00.498Z,75.38
2022-11-27T20:53:05.606Z,102.57
2022-11-27T20:56:10.732Z,88.90
2022-11-27T20:59:14.291Z,108.60
2022-11-27T21:02:16.939Z,112.43
2022-11-27T21:05:20.158Z,114.13
2022-11-27T21:08:24.319Z,109.90
2022-11-27T21:11:29.465Z,102.50
2022-11-27T21:14:31.963Z,74.07
2022-11-27T21:17:35.158Z,68.60
2022-11-27T21:20:40.531Z,70.00
2022-11-27T21:23:44.636Z,57.15
2022-11-27T21:26:47.799Z,49.67
2022-11-27T21:29:50.738Z,49.17
2022-11-27T21:32:53.222Z,57.47
2022-11-27T21:35:56.132Z,61.53
2022-11-27T21:39:02.772Z,49.97
2022-11-27T21:42:05.484Z,53.00
2022-11-27T21:45:08.794Z,47.00
2022-11-27T21:48:14.504Z,44.73
2022-11-27T21:51:20.836Z,44.25
2022-11-27T21:54:24.710Z,45.08
2022-11-27T21:57:27.139Z,45.53
2022-11-27T22:00:29.927Z,42.35
2022-11-27T22:03:32.900Z,38.00
2022-11-27T22:06:37.521Z,43.63
2022-11-27T22:09:41.290Z,42.38
2022-11-27T22:12:43.747Z,40.85
2022-11-27T22:15:46.896Z,47.08
2022-11-27T22:18:50.063Z,43.53
2022-11-27T22:21:52.729Z,39.25
2022-11-27T22:24:56.601Z,41.22
2022-11-27T22:27:59.270Z,44.63
2022-11-27T22:31:08.019Z,43.53
2022-11-27T22:34:10.837Z,46.67
2022-11-27T22:37:14.204Z,40.00
2022-11-27T22:40:20.078Z,37.03
2022-11-27T22:43:23.080Z,40.60
2022-11-27T22:46:28.111Z,43.10
2022-11-27T22:49:30.683Z,37.20
2022-11-27T22:52:34.696Z,41.50
2022-11-27T22:55:38.686Z,35.13
2022-11-27T22:58:42.097Z,39.67
2022-11-27T23:01:44.818Z,37.67
2022-11-27T23:04:47.410Z,34.97
2022-11-27T23:07:50.025Z,35.47
2022-11-27T23:10:54.227Z,34.03
2022-11-27T23:13:57.982Z,30.83
2022-11-27T23:17:01.660Z,35.38
2022-11-27T23:20:05.372Z,35.23
2022-11-27T23:23:09.541Z,33.72
2022-11-27T23:26:18.125Z,35.53
2022-11-27T23:29:20.812Z,35.00
2022-11-27T23:32:23.647Z,36.28
2022-11-27T23:35:26.430Z,36.73
2022-11-27T23:38:29.386Z,34.55
2022-11-27T23:41:33.895Z,37.65
2022-11-27T23:44:36.743Z,31.90
2022-11-27T23:47:39.376Z,33.75
2022-11-27T23:50:43.072Z,37.30
2022-11-27T23:53:46.687Z,35.30
2022-11-27T23:56:52.516Z,36.53
2022-11-27T23:59:55.107Z,34.90
